sensor_id;sensor_type;location;lat;lon;timestamp;P1;durP1;ratioP1;P2;durP2;ratioP2
8708;SDS011;4391;48.678;9.280;2024-03-23T00:51:26;12.77;;;4.85;;
8708;SDS011;4391;48.678;9.280;2024-03-23T00:53:55;9.60;;;5.20;;
8708;SDS011;4391;48.678;9.280;2024-03-23T00:56:21;9.93;;;4.50;;
8708;SDS011;4391;48.678;9.280;2024-03-23T00:58:49;14.27;;;4.80;;
8708;SDS011;4391;48.678;9.280;2024-03-23T01:01:15;9.82;;;5.05;;
8708;SDS011;4391;48.678;9.280;2024-03-23T01:03:42;10.10;;;4.75;;
8708;SDS011;4391;48.678;9.280;2024-03-23T01:06:08;12.93;;;5.10;;
8708;SDS011;4391;48.678;9.280;2024-03-23T01:08:36;9.77;;;4.50;;
8708;SDS011;4391;48.678;9.280;2024-03-23T01:11:05;6.50;;;2.70;;
8708;SDS011;4391;48.678;9.280;2024-03-23T01:13:33;7.85;;;2.72;;
8708;SDS011;4391;48.678;9.280;2024-03-23T01:15:59;7.82;;;2.40;;
8708;SDS011;4391;48.678;9.280;2024-03-23T01:18:26;5.97;;;2.10;;
8708;SDS011;4391;48.678;9.280;2024-03-23T01:20:52;4.57;;;2.10;;
8708;SDS011;4391;48.678;9.280;2024-03-23T01:23:22;6.93;;;2.53;;
8708;SDS011;4391;48.678;9.280;2024-03-23T01:25:51;7.85;;;3.58;;
8708;SDS011;4391;48.678;9.280;2024-03-23T01:28:20;10.65;;;4.57;;
8708;SDS011;4391;48.678;9.280;2024-03-23T01:30:46;10.80;;;4.33;;
8708;SDS011;4391;48.678;9.280;2024-03-23T01:33:14;9.48;;;4.75;;
8708;SDS011;4391;48.678;9.280;2024-03-23T01:35:39;11.05;;;5.22;;
8708;SDS011;4391;48.678;9.280;2024-03-23T01:38:06;8.38;;;4.72;;
8708;SDS011;4391;48.678;9.280;2024-03-23T01:40:32;9.30;;;4.00;;
8708;SDS011;4391;48.678;9.280;2024-03-23T01:43:02;8.02;;;4.50;;
8708;SDS011;4391;48.678;9.280;2024-03-23T01:45:31;8.32;;;4.75;;
8708;SDS011;4391;48.678;9.280;2024-03-23T01:47:58;10.35;;;4.75;;
8708;SDS011;4391;48.678;9.280;2024-03-23T01:50:24;9.17;;;4.57;;
8708;SDS011;4391;48.678;9.280;2024-03-23T01:52:51;9.83;;;4.40;;
8708;SDS011;4391;48.678;9.280;2024-03-23T01:55:17;11.35;;;4.70;;
8708;SDS011;4391;48.678;9.280;2024-03-23T01:57:44;9.95;;;4.85;;
8708;SDS011;4391;48.678;9.280;2024-03-23T02:00:10;8.55;;;4.40;;
8708;SDS011;4391;48.678;9.280;2024-03-23T02:02:42;10.52;;;5.00;;
8708;SDS011;4391;48.678;9.280;2024-03-23T02:05:09;11.77;;;5.47;;
8708;SDS011;4391;48.678;9.280;2024-03-23T02:07:37;9.98;;;5.05;;
8708;SDS011;4391;48.678;9.280;2024-03-23T02:10:03;11.63;;;5.45;;
8708;SDS011;4391;48.678;9.280;2024-03-23T02:12:31;11.07;;;4.57;;
8708;SDS011;4391;48.678;9.280;2024-03-23T02:14:57;11.90;;;4.80;;
8708;SDS011;4391;48.678;9.280;2024-03-23T02:17:24;8.02;;;4.22;;
8708;SDS011;4391;48.678;9.280;2024-03-23T02:19:51;9.80;;;4.82;;
8708;SDS011;4391;48.678;9.280;2024-03-23T02:22:18;11.80;;;5.75;;
8708;SDS011;4391;48.678;9.280;2024-03-23T02:24:45;9.37;;;5.43;;
8708;SDS011;4391;48.678;9.280;2024-03-23T02:27:12;12.02;;;5.88;;
8708;SDS011;4391;48.678;9.280;2024-03-23T02:29:39;9.70;;;5.57;;
8708;SDS011;4391;48.678;9.280;2024-03-23T02:32:06;10.10;;;5.40;;
8708;SDS011;4391;48.678;9.280;2024-03-23T02:34:34;14.13;;;5.78;;
8708;SDS011;4391;48.678;9.280;2024-03-23T02:37:00;10.70;;;6.03;;
8708;SDS011;4391;48.678;9.280;2024-03-23T02:39:27;12.00;;;6.10;;
8708;SDS011;4391;48.678;9.280;2024-03-23T02:41:55;15.20;;;6.13;;
8708;SDS011;4391;48.678;9.280;2024-03-23T02:44:21;9.57;;;5.25;;
8708;SDS011;4391;48.678;9.280;2024-03-23T02:46:48;9.52;;;5.15;;
8708;SDS011;4391;48.678;9.280;2024-03-23T02:49:14;10.53;;;4.87;;
8708;SDS011;4391;48.678;9.280;2024-03-23T02:51:40;12.38;;;5.35;;
8708;SDS011;4391;48.678;9.280;2024-03-23T02:54:06;9.80;;;5.35;;
8708;SDS011;4391;48.678;9.280;2024-03-23T02:56:33;9.63;;;4.90;;
8708;SDS011;4391;48.678;9.280;2024-03-23T02:59:00;11.60;;;5.97;;
8708;SDS011;4391;48.678;9.280;2024-03-23T03:01:27;11.65;;;5.45;;
8708;SDS011;4391;48.678;9.280;2024-03-23T03:03:53;11.23;;;5.50;;
8708;SDS011;4391;48.678;9.280;2024-03-23T03:06:23;10.33;;;5.33;;
8708;SDS011;4391;48.678;9.280;2024-03-23T03:08:49;11.75;;;5.10;;
8708;SDS011;4391;48.678;9.280;2024-03-23T03:11:16;8.60;;;4.47;;
8708;SDS011;4391;48.678;9.280;2024-03-23T03:13:42;11.15;;;3.78;;
8708;SDS011;4391;48.678;9.280;2024-03-23T03:16:10;10.60;;;4.03;;
8708;SDS011;4391;48.678;9.280;2024-03-23T03:18:36;5.78;;;2.97;;
8708;SDS011;4391;48.678;9.280;2024-03-23T03:21:03;4.97;;;2.40;;
8708;SDS011;4391;48.678;9.280;2024-03-23T03:23:30;5.30;;;2.08;;
8708;SDS011;4391;48.678;9.280;2024-03-23T03:25:57;5.95;;;2.17;;
8708;SDS011;4391;48.678;9.280;2024-03-23T03:28:23;8.07;;;2.13;;
8708;SDS011;4391;48.678;9.280;2024-03-23T03:30:51;4.70;;;1.90;;
8708;SDS011;4391;48.678;9.280;2024-03-23T03:33:21;6.13;;;1.80;;
8708;SDS011;4391;48.678;9.280;2024-03-23T03:35:50;3.95;;;1.83;;
8708;SDS011;4391;48.678;9.280;2024-03-23T03:38:17;5.07;;;1.70;;
8708;SDS011;4391;48.678;9.280;2024-03-23T03:40:44;5.60;;;2.33;;
8708;SDS011;4391;48.678;9.280;2024-03-23T03:43:10;5.10;;;1.83;;
8708;SDS011;4391;48.678;9.280;2024-03-23T03:45:37;5.18;;;1.88;;
8708;SDS011;4391;48.678;9.280;2024-03-23T03:48:03;4.53;;;2.00;;
8708;SDS011;4391;48.678;9.280;2024-03-23T03:50:32;3.80;;;1.70;;
8708;SDS011;4391;48.678;9.280;2024-03-23T03:52:57;6.10;;;1.85;;
8708;SDS011;4391;48.678;9.280;2024-03-23T03:55:24;4.53;;;1.90;;
8708;SDS011;4391;48.678;9.280;2024-03-23T03:57:50;5.37;;;1.80;;
8708;SDS011;4391;48.678;9.280;2024-03-23T04:00:17;6.03;;;2.00;;
8708;SDS011;4391;48.678;9.280;2024-03-23T04:02:43;4.35;;;1.90;;
8708;SDS011;4391;48.678;9.280;2024-03-23T04:05:10;4.70;;;1.80;;
8708;SDS011;4391;48.678;9.280;2024-03-23T04:07:37;5.10;;;1.88;;
8708;SDS011;4391;48.678;9.280;2024-03-23T04:10:04;4.67;;;1.60;;
8708;SDS011;4391;48.678;9.280;2024-03-23T04:12:33;4.72;;;1.85;;
8708;SDS011;4391;48.678;9.280;2024-03-23T04:15:00;6.03;;;2.10;;
8708;SDS011;4391;48.678;9.280;2024-03-23T04:17:28;5.20;;;1.67;;
8708;SDS011;4391;48.678;9.280;2024-03-23T04:19:57;4.85;;;2.00;;
8708;SDS011;4391;48.678;9.280;2024-03-23T04:22:23;8.17;;;2.20;;
8708;SDS011;4391;48.678;9.280;2024-03-23T04:24:52;4.82;;;1.55;;
8708;SDS011;4391;48.678;9.280;2024-03-23T04:27:18;4.28;;;1.95;;
8708;SDS011;4391;48.678;9.280;2024-03-23T04:29:46;6.20;;;2.10;;
8708;SDS011;4391;48.678;9.280;2024-03-23T04:32:13;6.75;;;2.20;;
8708;SDS011;4391;48.678;9.280;2024-03-23T04:34:40;6.53;;;1.90;;
8708;SDS011;4391;48.678;9.280;2024-03-23T04:37:06;5.25;;;2.20;;
8708;SDS011;4391;48.678;9.280;2024-03-23T04:39:33;4.75;;;2.03;;
8708;SDS011;4391;48.678;9.280;2024-03-23T04:42:01;6.63;;;2.10;;
8708;SDS011;4391;48.678;9.280;2024-03-23T04:44:28;11.85;;;2.15;;
8708;SDS011;4391;48.678;9.280;2024-03-23T04:46:55;6.53;;;2.30;;
8708;SDS011;4391;48.678;9.280;2024-03-23T04:49:22;5.93;;;2.50;;
8708;SDS011;4391;48.678;9.280;2024-03-23T04:51:49;5.10;;;1.98;;
8708;SDS011;4391;48.678;9.280;2024-03-23T04:54:16;4.03;;;1.73;;
8708;SDS011;4391;48.678;9.280;2024-03-23T04:56:43;5.57;;;2.00;;
8708;SDS011;4391;48.678;9.280;2024-03-23T04:59:12;4.97;;;1.90;;
8708;SDS011;4391;48.678;9.280;2024-03-23T05:01:38;5.97;;;2.20;;
8708;SDS011;4391;48.678;9.280;2024-03-23T05:04:07;6.22;;;2.60;;
8708;SDS011;4391;48.678;9.280;2024-03-23T05:06:33;4.68;;;2.17;;
8708;SDS011;4391;48.678;9.280;2024-03-23T05:09:00;6.55;;;2.00;;
8708;SDS011;4391;48.678;9.280;2024-03-23T05:11:28;6.77;;;2.13;;
8708;SDS011;4391;48.678;9.280;2024-03-23T05:13:55;7.53;;;2.58;;
8708;SDS011;4391;48.678;9.280;2024-03-23T05:16:22;9.20;;;2.70;;
8708;SDS011;4391;48.678;9.280;2024-03-23T05:18:50;8.10;;;3.17;;
8708;SDS011;4391;48.678;9.280;2024-03-23T05:21:15;7.03;;;3.13;;
8708;SDS011;4391;48.678;9.280;2024-03-23T05:23:42;15.33;;;3.47;;
8708;SDS011;4391;48.678;9.280;2024-03-23T05:26:08;10.85;;;4.10;;
8708;SDS011;4391;48.678;9.280;2024-03-23T05:28:38;12.02;;;4.80;;
8708;SDS011;4391;48.678;9.280;2024-03-23T05:31:04;11.27;;;5.43;;
8708;SDS011;4391;48.678;9.280;2024-03-23T05:33:33;11.98;;;6.18;;
8708;SDS011;4391;48.678;9.280;2024-03-23T05:36:00;18.03;;;6.87;;
8708;SDS011;4391;48.678;9.280;2024-03-23T05:38:28;12.90;;;6.57;;
8708;SDS011;4391;48.678;9.280;2024-03-23T05:40:55;12.07;;;6.75;;
8708;SDS011;4391;48.678;9.280;2024-03-23T05:43:22;13.25;;;7.10;;
8708;SDS011;4391;48.678;9.280;2024-03-23T05:45:53;15.02;;;7.00;;
8708;SDS011;4391;48.678;9.280;2024-03-23T05:48:20;14.23;;;7.77;;
8708;SDS011;4391;48.678;9.280;2024-03-23T05:50:47;14.32;;;8.10;;
8708;SDS011;4391;48.678;9.280;2024-03-23T05:53:14;19.02;;;8.07;;
8708;SDS011;4391;48.678;9.280;2024-03-23T05:55:40;14.88;;;7.25;;
8708;SDS011;4391;48.678;9.280;2024-03-23T05:58:07;17.20;;;8.73;;
8708;SDS011;4391;48.678;9.280;2024-03-23T06:00:34;17.77;;;7.50;;
8708;SDS011;4391;48.678;9.280;2024-03-23T06:03:01;17.33;;;8.60;;
8708;SDS011;4391;48.678;9.280;2024-03-23T06:05:27;14.55;;;7.00;;
8708;SDS011;4391;48.678;9.280;2024-03-23T06:07:55;15.15;;;7.40;;
8708;SDS011;4391;48.678;9.280;2024-03-23T06:10:21;13.73;;;5.70;;
8708;SDS011;4391;48.678;9.280;2024-03-23T06:12:48;11.65;;;4.75;;
8708;SDS011;4391;48.678;9.280;2024-03-23T06:15:17;8.68;;;3.80;;
8708;SDS011;4391;48.678;9.280;2024-03-23T06:17:43;7.93;;;3.65;;
8708;SDS011;4391;48.678;9.280;2024-03-23T06:20:09;6.53;;;2.90;;
8708;SDS011;4391;48.678;9.280;2024-03-23T06:22:36;6.28;;;2.45;;
8708;SDS011;4391;48.678;9.280;2024-03-23T06:25:04;5.20;;;2.10;;
8708;SDS011;4391;48.678;9.280;2024-03-23T06:27:31;5.13;;;2.00;;
8708;SDS011;4391;48.678;9.280;2024-03-23T06:29:57;6.07;;;1.83;;
8708;SDS011;4391;48.678;9.280;2024-03-23T06:32:24;5.00;;;1.70;;
8708;SDS011;4391;48.678;9.280;2024-03-23T06:34:50;4.88;;;1.45;;
8708;SDS011;4391;48.678;9.280;2024-03-23T06:37:17;5.20;;;1.80;;
8708;SDS011;4391;48.678;9.280;2024-03-23T06:39:45;6.33;;;2.20;;
8708;SDS011;4391;48.678;9.280;2024-03-23T06:42:14;5.30;;;2.00;;
8708;SDS011;4391;48.678;9.280;2024-03-23T06:44:39;4.70;;;1.88;;
8708;SDS011;4391;48.678;9.280;2024-03-23T06:47:06;5.20;;;1.80;;
8708;SDS011;4391;48.678;9.280;2024-03-23T06:49:32;4.07;;;1.40;;
8708;SDS011;4391;48.678;9.280;2024-03-23T06:51:59;4.00;;;1.42;;
8708;SDS011;4391;48.678;9.280;2024-03-23T06:54:25;4.55;;;1.45;;
8708;SDS011;4391;48.678;9.280;2024-03-23T06:56:52;4.47;;;1.42;;
8708;SDS011;4391;48.678;9.280;2024-03-23T06:59:19;4.70;;;1.60;;
8708;SDS011;4391;48.678;9.280;2024-03-23T07:01:46;3.83;;;1.38;;
8708;SDS011;4391;48.678;9.280;2024-03-23T07:04:12;3.92;;;1.38;;
8708;SDS011;4391;48.678;9.280;2024-03-23T07:06:42;4.27;;;1.50;;
8708;SDS011;4391;48.678;9.280;2024-03-23T07:09:08;3.58;;;1.30;;
8708;SDS011;4391;48.678;9.280;2024-03-23T07:11:35;4.00;;;1.50;;
8708;SDS011;4391;48.678;9.280;2024-03-23T07:14:01;3.63;;;1.25;;
8708;SDS011;4391;48.678;9.280;2024-03-23T07:16:32;3.88;;;1.30;;
8708;SDS011;4391;48.678;9.280;2024-03-23T07:18:58;2.93;;;0.80;;
8708;SDS011;4391;48.678;9.280;2024-03-23T07:21:25;2.53;;;0.90;;
8708;SDS011;4391;48.678;9.280;2024-03-23T07:23:51;1.98;;;0.60;;
8708;SDS011;4391;48.678;9.280;2024-03-23T07:26:18;2.97;;;0.88;;
8708;SDS011;4391;48.678;9.280;2024-03-23T07:28:44;2.97;;;0.80;;
8708;SDS011;4391;48.678;9.280;2024-03-23T07:31:11;3.40;;;0.82;;
8708;SDS011;4391;48.678;9.280;2024-03-23T07:33:43;2.08;;;0.70;;
8708;SDS011;4391;48.678;9.280;2024-03-23T07:36:10;2.70;;;0.80;;
8708;SDS011;4391;48.678;9.280;2024-03-23T07:38:36;1.40;;;0.60;;
8708;SDS011;4391;48.678;9.280;2024-03-23T07:41:04;1.43;;;0.50;;
8708;SDS011;4391;48.678;9.280;2024-03-23T07:43:30;1.42;;;0.40;;
8708;SDS011;4391;48.678;9.280;2024-03-23T07:45:57;2.45;;;0.50;;
8708;SDS011;4391;48.678;9.280;2024-03-23T07:48:23;1.38;;;0.32;;
8708;SDS011;4391;48.678;9.280;2024-03-23T07:50:58;0.85;;;0.40;;
8708;SDS011;4391;48.678;9.280;2024-03-23T07:53:25;0.47;;;0.30;;
8708;SDS011;4391;48.678;9.280;2024-03-23T07:55:54;1.00;;;0.40;;
8708;SDS011;4391;48.678;9.280;2024-03-23T07:58:20;0.88;;;0.40;;
8708;SDS011;4391;48.678;9.280;2024-03-23T08:00:49;0.90;;;0.38;;
8708;SDS011;4391;48.678;9.280;2024-03-23T08:03:14;1.73;;;0.40;;
8708;SDS011;4391;48.678;9.280;2024-03-23T08:05:41;1.03;;;0.40;;
8708;SDS011;4391;48.678;9.280;2024-03-23T08:08:08;1.05;;;0.47;;
8708;SDS011;4391;48.678;9.280;2024-03-23T08:13:03;1.23;;;0.50;;
8708;SDS011;4391;48.678;9.280;2024-03-23T08:15:31;1.60;;;0.60;;
8708;SDS011;4391;48.678;9.280;2024-03-23T08:17:58;1.08;;;0.43;;
8708;SDS011;4391;48.678;9.280;2024-03-23T08:20:25;1.05;;;0.40;;
8708;SDS011;4391;48.678;9.280;2024-03-23T08:22:52;1.35;;;0.35;;
8708;SDS011;4391;48.678;9.280;2024-03-23T08:25:20;0.80;;;0.40;;
8708;SDS011;4391;48.678;9.280;2024-03-23T08:27:46;0.73;;;0.30;;
8708;SDS011;4391;48.678;9.280;2024-03-23T08:30:13;0.60;;;0.30;;
8708;SDS011;4391;48.678;9.280;2024-03-23T08:32:39;2.33;;;0.60;;
8708;SDS011;4391;48.678;9.280;2024-03-23T08:35:06;1.80;;;0.77;;
8708;SDS011;4391;48.678;9.280;2024-03-23T08:37:33;2.15;;;0.60;;
8708;SDS011;4391;48.678;9.280;2024-03-23T08:39:59;1.40;;;0.50;;
8708;SDS011;4391;48.678;9.280;2024-03-23T08:42:27;1.40;;;0.55;;
8708;SDS011;4391;48.678;9.280;2024-03-23T08:44:54;2.03;;;0.80;;
8708;SDS011;4391;48.678;9.280;2024-03-23T08:47:19;2.60;;;0.90;;
8708;SDS011;4391;48.678;9.280;2024-03-23T08:49:46;2.60;;;0.80;;
8708;SDS011;4391;48.678;9.280;2024-03-23T08:52:12;2.20;;;0.60;;
8708;SDS011;4391;48.678;9.280;2024-03-23T08:54:39;3.17;;;0.75;;
8708;SDS011;4391;48.678;9.280;2024-03-23T08:57:05;3.33;;;0.83;;
8708;SDS011;4391;48.678;9.280;2024-03-23T08:59:33;3.70;;;0.85;;
8708;SDS011;4391;48.678;9.280;2024-03-23T09:01:59;2.47;;;0.95;;
8708;SDS011;4391;48.678;9.280;2024-03-23T09:04:26;3.22;;;0.80;;
8708;SDS011;4391;48.678;9.280;2024-03-23T09:06:52;5.17;;;1.40;;
8708;SDS011;4391;48.678;9.280;2024-03-23T09:09:19;4.13;;;1.10;;
8708;SDS011;4391;48.678;9.280;2024-03-23T09:11:45;3.80;;;1.10;;
8708;SDS011;4391;48.678;9.280;2024-03-23T09:14:12;4.07;;;1.10;;
8708;SDS011;4391;48.678;9.280;2024-03-23T09:16:39;4.33;;;1.00;;
8708;SDS011;4391;48.678;9.280;2024-03-23T09:19:06;3.75;;;1.55;;
8708;SDS011;4391;48.678;9.280;2024-03-23T09:21:31;2.10;;;0.90;;
8708;SDS011;4391;48.678;9.280;2024-03-23T09:23:58;5.22;;;1.15;;
8708;SDS011;4391;48.678;9.280;2024-03-23T09:26:24;5.60;;;0.93;;
8708;SDS011;4391;48.678;9.280;2024-03-23T09:28:54;5.35;;;1.33;;
8708;SDS011;4391;48.678;9.280;2024-03-23T09:31:23;3.70;;;1.30;;
8708;SDS011;4391;48.678;9.280;2024-03-23T09:33:51;3.38;;;1.27;;
8708;SDS011;4391;48.678;9.280;2024-03-23T09:36:17;5.90;;;1.52;;
8708;SDS011;4391;48.678;9.280;2024-03-23T09:38:44;5.37;;;1.30;;
8708;SDS011;4391;48.678;9.280;2024-03-23T09:41:10;4.90;;;1.38;;
8708;SDS011;4391;48.678;9.280;2024-03-23T09:43:37;6.03;;;1.45;;
8708;SDS011;4391;48.678;9.280;2024-03-23T09:46:03;5.78;;;1.60;;
8708;SDS011;4391;48.678;9.280;2024-03-23T09:48:30;6.30;;;1.33;;
8708;SDS011;4391;48.678;9.280;2024-03-23T09:50:58;4.78;;;1.60;;
8708;SDS011;4391;48.678;9.280;2024-03-23T09:53:26;5.97;;;1.83;;
8708;SDS011;4391;48.678;9.280;2024-03-23T09:55:52;6.97;;;1.75;;
8708;SDS011;4391;48.678;9.280;2024-03-23T09:58:20;6.47;;;1.90;;
8708;SDS011;4391;48.678;9.280;2024-03-23T10:00:51;5.60;;;2.20;;
8708;SDS011;4391;48.678;9.280;2024-03-23T10:03:18;7.57;;;2.20;;
8708;SDS011;4391;48.678;9.280;2024-03-23T10:05:44;8.23;;;2.15;;
8708;SDS011;4391;48.678;9.280;2024-03-23T10:08:18;6.30;;;1.90;;
8708;SDS011;4391;48.678;9.280;2024-03-23T10:10:44;4.97;;;2.23;;
8708;SDS011;4391;48.678;9.280;2024-03-23T10:13:14;5.45;;;1.85;;
8708;SDS011;4391;48.678;9.280;2024-03-23T10:15:54;5.82;;;1.85;;
8708;SDS011;4391;48.678;9.280;2024-03-23T10:18:21;5.88;;;1.80;;
8708;SDS011;4391;48.678;9.280;2024-03-23T10:20:50;9.60;;;2.00;;
8708;SDS011;4391;48.678;9.280;2024-03-23T10:23:19;6.53;;;2.10;;
8708;SDS011;4391;48.678;9.280;2024-03-23T10:25:45;7.20;;;1.80;;
8708;SDS011;4391;48.678;9.280;2024-03-23T10:28:12;7.10;;;1.85;;
8708;SDS011;4391;48.678;9.280;2024-03-23T10:30:38;5.80;;;1.50;;
8708;SDS011;4391;48.678;9.280;2024-03-23T10:33:08;6.65;;;1.77;;
8708;SDS011;4391;48.678;9.280;2024-03-23T10:35:34;8.03;;;1.80;;
8708;SDS011;4391;48.678;9.280;2024-03-23T10:38:03;5.97;;;2.10;;
8708;SDS011;4391;48.678;9.280;2024-03-23T10:40:31;8.15;;;2.00;;
8708;SDS011;4391;48.678;9.280;2024-03-23T10:43:04;7.72;;;1.85;;
8708;SDS011;4391;48.678;9.280;2024-03-23T10:45:31;9.60;;;2.40;;
8708;SDS011;4391;48.678;9.280;2024-03-23T10:47:58;7.47;;;1.77;;
8708;SDS011;4391;48.678;9.280;2024-03-23T10:50:24;7.88;;;2.10;;
8708;SDS011;4391;48.678;9.280;2024-03-23T10:52:52;6.35;;;1.98;;
8708;SDS011;4391;48.678;9.280;2024-03-23T10:55:20;9.27;;;2.30;;
8708;SDS011;4391;48.678;9.280;2024-03-23T10:57:52;7.13;;;1.87;;
8708;SDS011;4391;48.678;9.280;2024-03-23T11:00:20;10.98;;;2.22;;
8708;SDS011;4391;48.678;9.280;2024-03-23T11:02:48;6.13;;;2.47;;
8708;SDS011;4391;48.678;9.280;2024-03-23T11:05:27;14.07;;;2.97;;
8708;SDS011;4391;48.678;9.280;2024-03-23T11:07:55;6.78;;;2.08;;
8708;SDS011;4391;48.678;9.280;2024-03-23T11:10:24;6.13;;;1.67;;
8708;SDS011;4391;48.678;9.280;2024-03-23T11:12:54;6.57;;;1.48;;
8708;SDS011;4391;48.678;9.280;2024-03-23T11:15:20;4.97;;;1.25;;
8708;SDS011;4391;48.678;9.280;2024-03-23T11:20:31;3.10;;;1.20;;
8708;SDS011;4391;48.678;9.280;2024-03-23T11:22:58;5.40;;;1.00;;
8708;SDS011;4391;48.678;9.280;2024-03-23T11:25:25;6.45;;;1.63;;
8708;SDS011;4391;48.678;9.280;2024-03-23T11:27:54;5.25;;;1.20;;
8708;SDS011;4391;48.678;9.280;2024-03-23T11:30:22;6.57;;;1.33;;
8708;SDS011;4391;48.678;9.280;2024-03-23T11:32:50;3.38;;;1.08;;
8708;SDS011;4391;48.678;9.280;2024-03-23T11:35:27;3.80;;;1.10;;
8708;SDS011;4391;48.678;9.280;2024-03-23T11:40:44;6.43;;;1.95;;
8708;SDS011;4391;48.678;9.280;2024-03-23T11:43:13;10.50;;;4.13;;
8708;SDS011;4391;48.678;9.280;2024-03-23T11:45:42;8.90;;;3.10;;
8708;SDS011;4391;48.678;9.280;2024-03-23T11:48:10;7.03;;;2.13;;
8708;SDS011;4391;48.678;9.280;2024-03-23T11:50:38;4.65;;;1.40;;
8708;SDS011;4391;48.678;9.280;2024-03-23T11:53:07;7.53;;;1.88;;
8708;SDS011;4391;48.678;9.280;2024-03-23T11:55:41;4.20;;;1.35;;
8708;SDS011;4391;48.678;9.280;2024-03-23T11:58:09;8.18;;;1.65;;
8708;SDS011;4391;48.678;9.280;2024-03-23T12:00:37;6.70;;;1.90;;
8708;SDS011;4391;48.678;9.280;2024-03-23T12:03:04;6.00;;;1.25;;
8708;SDS011;4391;48.678;9.280;2024-03-23T12:05:30;6.45;;;1.60;;
8708;SDS011;4391;48.678;9.280;2024-03-23T12:11:04;6.53;;;1.52;;
8708;SDS011;4391;48.678;9.280;2024-03-23T12:13:31;4.67;;;1.13;;
8708;SDS011;4391;48.678;9.280;2024-03-23T12:16:10;5.75;;;1.00;;
8708;SDS011;4391;48.678;9.280;2024-03-23T12:18:37;3.97;;;1.38;;
8708;SDS011;4391;48.678;9.280;2024-03-23T12:21:04;5.25;;;1.10;;
8708;SDS011;4391;48.678;9.280;2024-03-23T12:23:31;4.80;;;1.10;;
8708;SDS011;4391;48.678;9.280;2024-03-23T12:25:58;6.33;;;1.10;;
8708;SDS011;4391;48.678;9.280;2024-03-23T12:28:24;5.22;;;0.98;;
8708;SDS011;4391;48.678;9.280;2024-03-23T12:30:51;4.90;;;1.25;;
8708;SDS011;4391;48.678;9.280;2024-03-23T12:33:19;4.63;;;1.23;;
8708;SDS011;4391;48.678;9.280;2024-03-23T12:35:46;5.03;;;1.23;;
8708;SDS011;4391;48.678;9.280;2024-03-23T12:38:12;6.23;;;1.20;;
8708;SDS011;4391;48.678;9.280;2024-03-23T12:40:41;5.00;;;1.40;;
8708;SDS011;4391;48.678;9.280;2024-03-23T12:43:07;6.28;;;1.00;;
8708;SDS011;4391;48.678;9.280;2024-03-23T12:45:34;5.27;;;1.10;;
8708;SDS011;4391;48.678;9.280;2024-03-23T12:48:00;3.53;;;1.15;;
8708;SDS011;4391;48.678;9.280;2024-03-23T12:50:28;5.63;;;1.00;;
8708;SDS011;4391;48.678;9.280;2024-03-23T12:52:54;5.78;;;1.10;;
8708;SDS011;4391;48.678;9.280;2024-03-23T12:55:20;9.47;;;1.30;;
8708;SDS011;4391;48.678;9.280;2024-03-23T12:57:46;8.63;;;1.55;;
8708;SDS011;4391;48.678;9.280;2024-03-23T13:00:14;7.15;;;1.42;;
8708;SDS011;4391;48.678;9.280;2024-03-23T13:02:41;6.35;;;1.80;;
8708;SDS011;4391;48.678;9.280;2024-03-23T13:05:08;10.48;;;1.50;;
8708;SDS011;4391;48.678;9.280;2024-03-23T13:07:35;4.63;;;1.53;;
8708;SDS011;4391;48.678;9.280;2024-03-23T13:10:03;9.10;;;1.80;;
8708;SDS011;4391;48.678;9.280;2024-03-23T13:12:30;5.57;;;1.30;;
8708;SDS011;4391;48.678;9.280;2024-03-23T13:14:57;6.13;;;1.73;;
8708;SDS011;4391;48.678;9.280;2024-03-23T13:17:24;8.05;;;1.40;;
8708;SDS011;4391;48.678;9.280;2024-03-23T13:19:51;4.43;;;1.53;;
8708;SDS011;4391;48.678;9.280;2024-03-23T13:22:18;8.02;;;1.73;;
8708;SDS011;4391;48.678;9.280;2024-03-23T13:24:46;5.03;;;1.50;;
8708;SDS011;4391;48.678;9.280;2024-03-23T13:27:12;6.95;;;1.42;;
8708;SDS011;4391;48.678;9.280;2024-03-23T13:29:38;7.55;;;1.88;;
8708;SDS011;4391;48.678;9.280;2024-03-23T13:32:04;6.27;;;1.73;;
8708;SDS011;4391;48.678;9.280;2024-03-23T13:34:32;5.47;;;1.48;;
8708;SDS011;4391;48.678;9.280;2024-03-23T13:36:58;3.60;;;0.80;;
8708;SDS011;4391;48.678;9.280;2024-03-23T13:39:25;3.03;;;0.70;;
8708;SDS011;4391;48.678;9.280;2024-03-23T13:41:54;1.60;;;0.53;;
8708;SDS011;4391;48.678;9.280;2024-03-23T13:44:21;1.75;;;0.40;;
8708;SDS011;4391;48.678;9.280;2024-03-23T13:46:47;3.38;;;0.70;;
8708;SDS011;4391;48.678;9.280;2024-03-23T13:49:20;1.15;;;0.35;;
8708;SDS011;4391;48.678;9.280;2024-03-23T13:51:51;1.90;;;0.50;;
8708;SDS011;4391;48.678;9.280;2024-03-23T13:54:18;3.13;;;0.70;;
8708;SDS011;4391;48.678;9.280;2024-03-23T13:56:44;3.03;;;0.70;;
8708;SDS011;4391;48.678;9.280;2024-03-23T13:59:12;3.13;;;0.60;;
8708;SDS011;4391;48.678;9.280;2024-03-23T14:01:38;5.60;;;0.60;;
8708;SDS011;4391;48.678;9.280;2024-03-23T14:04:05;2.47;;;0.50;;
8708;SDS011;4391;48.678;9.280;2024-03-23T14:06:31;2.30;;;0.53;;
8708;SDS011;4391;48.678;9.280;2024-03-23T14:08:58;3.05;;;0.77;;
8708;SDS011;4391;48.678;9.280;2024-03-23T14:11:24;4.03;;;0.80;;
8708;SDS011;4391;48.678;9.280;2024-03-23T14:13:53;5.03;;;1.10;;
8708;SDS011;4391;48.678;9.280;2024-03-23T14:16:21;4.00;;;1.02;;
8708;SDS011;4391;48.678;9.280;2024-03-23T14:18:48;3.60;;;1.00;;
8708;SDS011;4391;48.678;9.280;2024-03-23T14:21:13;4.28;;;1.30;;
8708;SDS011;4391;48.678;9.280;2024-03-23T14:23:40;6.03;;;1.20;;
8708;SDS011;4391;48.678;9.280;2024-03-23T14:26:06;3.33;;;0.95;;
8708;SDS011;4391;48.678;9.280;2024-03-23T14:28:33;6.07;;;1.40;;
8708;SDS011;4391;48.678;9.280;2024-03-23T14:31:00;4.43;;;0.80;;
8708;SDS011;4391;48.678;9.280;2024-03-23T14:33:29;6.43;;;1.17;;
8708;SDS011;4391;48.678;9.280;2024-03-23T14:35:58;6.05;;;1.00;;
8708;SDS011;4391;48.678;9.280;2024-03-23T14:38:25;2.55;;;0.73;;
8708;SDS011;4391;48.678;9.280;2024-03-23T14:40:51;3.00;;;1.03;;
8708;SDS011;4391;48.678;9.280;2024-03-23T14:43:18;4.10;;;0.98;;
8708;SDS011;4391;48.678;9.280;2024-03-23T14:45:48;6.47;;;0.90;;
8708;SDS011;4391;48.678;9.280;2024-03-23T14:48:34;4.30;;;0.90;;
8708;SDS011;4391;48.678;9.280;2024-03-23T14:51:00;5.17;;;1.03;;
8708;SDS011;4391;48.678;9.280;2024-03-23T14:53:29;3.10;;;0.90;;
8708;SDS011;4391;48.678;9.280;2024-03-23T14:55:55;3.47;;;1.00;;
8708;SDS011;4391;48.678;9.280;2024-03-23T14:58:23;4.47;;;0.60;;
8708;SDS011;4391;48.678;9.280;2024-03-23T15:00:49;2.92;;;0.82;;
8708;SDS011;4391;48.678;9.280;2024-03-23T15:03:16;4.53;;;0.90;;
8708;SDS011;4391;48.678;9.280;2024-03-23T15:05:44;6.22;;;0.95;;
8708;SDS011;4391;48.678;9.280;2024-03-23T15:08:18;3.58;;;0.73;;
8708;SDS011;4391;48.678;9.280;2024-03-23T15:10:44;5.40;;;1.10;;
8708;SDS011;4391;48.678;9.280;2024-03-23T15:13:11;7.60;;;0.90;;
8708;SDS011;4391;48.678;9.280;2024-03-23T15:15:38;3.72;;;1.30;;
8708;SDS011;4391;48.678;9.280;2024-03-23T15:18:08;2.22;;;0.73;;
8708;SDS011;4391;48.678;9.280;2024-03-23T15:20:35;5.27;;;0.80;;
8708;SDS011;4391;48.678;9.280;2024-03-23T15:23:03;4.32;;;0.98;;
8708;SDS011;4391;48.678;9.280;2024-03-23T15:25:29;2.75;;;0.68;;
8708;SDS011;4391;48.678;9.280;2024-03-23T15:27:57;1.90;;;0.60;;
8708;SDS011;4391;48.678;9.280;2024-03-23T15:30:24;1.73;;;0.60;;
8708;SDS011;4391;48.678;9.280;2024-03-23T15:32:51;2.70;;;0.80;;
8708;SDS011;4391;48.678;9.280;2024-03-23T15:35:17;2.22;;;0.68;;
8708;SDS011;4391;48.678;9.280;2024-03-23T15:37:46;2.80;;;0.50;;
8708;SDS011;4391;48.678;9.280;2024-03-23T15:40:14;3.50;;;0.70;;
8708;SDS011;4391;48.678;9.280;2024-03-23T15:42:41;2.63;;;0.60;;
8708;SDS011;4391;48.678;9.280;2024-03-23T15:45:07;4.97;;;0.77;;
8708;SDS011;4391;48.678;9.280;2024-03-23T15:47:34;2.42;;;0.55;;
8708;SDS011;4391;48.678;9.280;2024-03-23T15:50:00;2.70;;;0.80;;
8708;SDS011;4391;48.678;9.280;2024-03-23T15:52:33;2.53;;;0.70;;
8708;SDS011;4391;48.678;9.280;2024-03-23T15:54:59;3.80;;;0.73;;
8708;SDS011;4391;48.678;9.280;2024-03-23T15:57:28;2.15;;;0.70;;
8708;SDS011;4391;48.678;9.280;2024-03-23T15:59:54;2.63;;;0.60;;
8708;SDS011;4391;48.678;9.280;2024-03-23T16:02:21;4.55;;;0.93;;
8708;SDS011;4391;48.678;9.280;2024-03-23T16:04:47;5.27;;;0.80;;
8708;SDS011;4391;48.678;9.280;2024-03-23T16:07:14;5.20;;;1.40;;
8708;SDS011;4391;48.678;9.280;2024-03-23T16:09:39;5.50;;;1.25;;
8708;SDS011;4391;48.678;9.280;2024-03-23T16:12:06;5.03;;;0.88;;
8708;SDS011;4391;48.678;9.280;2024-03-23T16:14:34;5.03;;;0.70;;